Time;durP1;ratioP1;P1;durP2;ratioP2;P2;SDS_P1;SDS_P2;PMS_P1;PMS_P2;Temp;Humidity;BMP_temperature;BMP_pressure;BME280_temperature;BME280_humidity;BME280_pressure;Samples;Min_cycle;Max_cycle;Signal;HPM_P1;HPM_P2
2022/12/29 00:02:38;;;;;;;5.13;2.60;;;12.00;99.90;;;;;;5022916;28;20510;-74
2022/12/29 00:05:25;;;;;;;2.80;2.00;;;12.10;99.90;;;;;;5018343;28;20481;-74
2022/12/29 00:08:10;;;;;;;6.00;3.07;;;12.00;99.90;;;;;;5023188;28;21028;-75
2022/12/29 00:10:56;;;;;;;5.67;2.13;;;12.00;99.90;;;;;;5024711;28;20440;-75
2022/12/29 00:16:46;;;;;;;5.23;2.00;;;12.10;99.90;;;;;;5038057;28;20679;-74
2022/12/29 00:35:10;;;;;;;3.80;2.10;;;12.00;99.90;;;;;;5020898;28;20431;-74
2022/12/29 00:44:07;;;;;;;4.43;2.17;;;12.00;99.90;;;;;;5037242;28;20424;-73
2022/12/29 00:46:53;;;;;;;3.43;2.33;;;11.90;99.90;;;;;;5022918;28;20971;-72
2022/12/29 00:49:37;;;;;;;3.30;1.97;;;11.90;99.90;;;;;;5030432;28;20603;-74
2022/12/29 00:52:24;;;;;;;3.03;2.13;;;11.90;99.90;;;;;;5041798;28;20474;-74
2022/12/29 00:55:10;;;;;;;7.03;2.30;;;11.90;99.90;;;;;;5028604;28;20417;-74
2022/12/29 00:57:55;;;;;;;6.67;2.57;;;11.80;99.90;;;;;;5019832;28;20806;-74
2022/12/29 01:00:41;;;;;;;3.80;2.37;;;11.80;99.90;;;;;;5030055;28;20945;-74
2022/12/29 01:03:27;;;;;;;5.30;2.00;;;11.80;99.90;;;;;;5022605;28;20460;-75
2022/12/29 01:06:13;;;;;;;7.10;2.17;;;11.70;99.90;;;;;;5024047;28;20464;-70
2022/12/29 01:12:04;;;;;;;7.40;2.70;;;11.70;99.90;;;;;;5034171;28;20429;-73
2022/12/29 01:14:50;;;;;;;6.00;1.90;;;11.70;99.90;;;;;;5028905;28;20515;-73
2022/12/29 01:17:36;;;;;;;5.30;2.20;;;11.70;99.90;;;;;;5017237;28;20453;-74
2022/12/29 01:20:21;;;;;;;2.77;1.90;;;11.70;99.90;;;;;;5028196;28;20440;-73
2022/12/29 01:23:07;;;;;;;3.50;1.70;;;11.70;99.90;;;;;;5033272;28;20431;-72
2022/12/29 01:25:54;;;;;;;8.33;2.20;;;11.70;99.90;;;;;;5031889;28;20464;-73
2022/12/29 01:28:41;;;;;;;3.77;2.00;;;11.70;99.90;;;;;;5033770;28;20454;-74
2022/12/29 01:31:26;;;;;;;3.60;2.17;;;11.70;99.90;;;;;;5030296;28;20459;-73
2022/12/29 01:34:12;;;;;;;3.83;1.87;;;11.70;99.90;;;;;;5030568;28;20503;-74
2022/12/29 01:36:58;;;;;;;4.63;2.10;;;11.70;99.90;;;;;;5023316;28;20504;-74
2022/12/29 01:39:44;;;;;;;7.43;3.10;;;11.70;99.90;;;;;;5036265;28;20445;-74
2022/12/29 01:42:30;;;;;;;4.00;2.00;;;11.70;99.90;;;;;;5034052;28;20977;-74
2022/12/29 01:45:17;;;;;;;8.83;2.10;;;11.80;99.90;;;;;;5037424;28;20483;-73
2022/12/29 01:48:05;;;;;;;4.73;2.73;;;11.80;99.90;;;;;;5026326;28;20584;-74
2022/12/29 01:50:54;;;;;;;4.20;1.83;;;11.80;99.90;;;;;;5036263;28;20499;-73
2022/12/29 01:53:39;;;;;;;3.30;2.10;;;11.80;99.90;;;;;;5033202;28;20802;-73
2022/12/29 01:56:26;;;;;;;6.20;1.70;;;11.90;99.90;;;;;;5025085;28;20437;-73
2022/12/29 01:59:17;;;;;;;4.70;1.80;;;11.80;99.90;;;;;;5031293;28;20588;-74
2022/12/29 02:02:04;;;;;;;2.70;1.30;;;11.80;99.90;;;;;;5029677;28;20464;-74
2022/12/29 02:04:49;;;;;;;4.37;1.50;;;11.80;99.90;;;;;;5026409;28;20417;-73
2022/12/29 02:07:35;;;;;;;3.50;1.70;;;11.80;99.90;;;;;;5020336;28;20444;-71
2022/12/29 02:10:22;;;;;;;4.10;2.00;;;11.80;99.90;;;;;;5034381;28;20460;-73
2022/12/29 02:13:08;;;;;;;6.57;1.80;;;11.80;99.90;;;;;;5030804;28;20467;-74
2022/12/29 02:16:06;;;;;;;3.73;1.90;;;11.80;99.90;;;;;;5016513;28;20478;-74
2022/12/29 02:19:01;;;;;;;4.10;1.83;;;11.80;99.90;;;;;;5031455;28;20630;-73
2022/12/29 02:21:58;;;;;;;4.10;1.70;;;11.70;99.90;;;;;;5027988;28;20437;-72
2022/12/29 02:25:14;;;;;;;2.40;1.37;;;11.70;99.90;;;;;;5031667;28;20436;-74
2022/12/29 02:28:36;;;;;;;7.00;1.50;;;11.70;99.90;;;;;;5035193;28;20564;-74
2022/12/29 02:31:29;;;;;;;2.27;1.47;;;11.70;99.90;;;;;;5018569;28;20450;-74
2022/12/29 02:34:27;;;;;;;7.57;1.77;;;11.70;99.90;;;;;;5026834;28;20823;-72
2022/12/29 02:37:23;;;;;;;3.30;1.73;;;11.70;99.90;;;;;;5021917;28;20480;-74
2022/12/29 02:40:19;;;;;;;3.40;1.47;;;11.70;99.90;;;;;;5034542;28;20422;-73
2022/12/29 02:43:14;;;;;;;5.77;2.30;;;11.70;99.90;;;;;;5023607;28;20433;-74
2022/12/29 02:46:05;;;;;;;5.10;1.60;;;11.80;99.90;;;;;;5018087;28;20471;-73
2022/12/29 02:49:01;;;;;;;2.70;1.57;;;11.80;99.90;;;;;;5029759;28;20435;-74
2022/12/29 02:51:54;;;;;;;2.67;1.90;;;11.70;99.90;;;;;;5027218;28;20501;-73
2022/12/29 02:54:42;;;;;;;2.30;1.60;;;11.70;99.90;;;;;;5024938;28;21052;-74
2022/12/29 02:57:34;;;;;;;6.23;2.10;;;11.70;99.90;;;;;;5026863;28;20486;-70
2022/12/29 03:00:20;;;;;;;3.77;1.67;;;11.60;99.90;;;;;;5021623;28;20541;-73
2022/12/29 03:03:17;;;;;;;3.63;1.30;;;11.60;99.90;;;;;;5025006;28;20438;-73
2022/12/29 03:06:21;;;;;;;2.83;1.30;;;11.70;99.90;;;;;;5018219;28;20468;-74
2022/12/29 03:09:18;;;;;;;3.00;1.73;;;11.70;99.90;;;;;;5034426;28;20467;-72
2022/12/29 03:12:15;;;;;;;2.43;1.57;;;11.60;99.90;;;;;;5024169;28;21076;-73
2022/12/29 03:18:21;;;;;;;2.30;1.30;;;11.60;99.90;;;;;;5033365;28;20432;-73
2022/12/29 03:21:12;;;;;;;2.57;1.57;;;11.70;99.90;;;;;;5035203;28;20419;-73
2022/12/29 03:23:58;;;;;;;2.80;1.80;;;11.70;99.90;;;;;;5039264;28;20453;-73
2022/12/29 03:26:46;;;;;;;3.20;1.60;;;11.70;99.90;;;;;;5028690;28;20471;-74
2022/12/29 03:29:35;;;;;;;3.50;1.77;;;11.70;99.90;;;;;;5030329;28;20495;-73
2022/12/29 03:32:25;;;;;;;3.53;1.40;;;11.80;99.90;;;;;;5036704;28;20436;-72
2022/12/29 03:35:14;;;;;;;2.17;1.20;;;11.80;99.90;;;;;;5031750;28;20523;-73
2022/12/29 03:38:10;;;;;;;2.17;1.20;;;11.80;99.90;;;;;;5034086;28;20440;-74
2022/12/29 03:40:59;;;;;;;5.33;1.83;;;11.80;99.90;;;;;;5031701;28;20781;-74
2022/12/29 03:43:44;;;;;;;3.00;1.40;;;11.80;99.90;;;;;;5032703;28;20428;-73
2022/12/29 03:46:30;;;;;;;1.77;1.43;;;11.80;99.90;;;;;;5019269;28;21004;-72
2022/12/29 03:49:16;;;;;;;5.33;1.57;;;11.90;99.90;;;;;;5026227;28;20989;-74
2022/12/29 03:52:02;;;;;;;3.83;1.50;;;11.90;99.90;;;;;;5030851;28;20571;-73
2022/12/29 03:54:49;;;;;;;4.43;1.40;;;11.90;99.90;;;;;;5023532;28;20530;-74
2022/12/29 03:57:34;;;;;;;4.33;1.60;;;11.90;99.90;;;;;;5036073;28;21157;-72
2022/12/29 04:00:20;;;;;;;2.90;1.53;;;11.90;99.90;;;;;;5028637;28;20493;-72
2022/12/29 04:03:06;;;;;;;3.33;1.23;;;11.90;99.90;;;;;;5027812;28;22075;-74
2022/12/29 04:05:51;;;;;;;2.50;1.33;;;12.00;99.90;;;;;;5023510;28;20503;-74
2022/12/29 04:08:37;;;;;;;4.83;1.70;;;12.00;99.90;;;;;;5032114;28;20856;-74
2022/12/29 04:11:24;;;;;;;2.70;1.63;;;12.00;99.90;;;;;;5033602;28;20448;-73
2022/12/29 04:14:10;;;;;;;2.77;1.40;;;12.00;99.90;;;;;;5023889;28;20583;-74
2022/12/29 04:16:56;;;;;;;3.50;1.50;;;12.00;99.90;;;;;;5028502;28;20440;-74
2022/12/29 04:19:41;;;;;;;3.20;1.40;;;12.10;99.90;;;;;;5037830;28;20472;-73
2022/12/29 04:22:27;;;;;;;2.47;1.57;;;12.00;99.90;;;;;;5030483;28;20448;-74
2022/12/29 04:25:13;;;;;;;2.30;1.30;;;12.00;99.90;;;;;;5023872;28;20588;-72
2022/12/29 04:28:00;;;;;;;2.00;1.30;;;12.10;99.90;;;;;;5032470;28;20539;-74
2022/12/29 04:30:46;;;;;;;3.23;1.30;;;12.10;99.90;;;;;;5021268;28;20453;-72
2022/12/29 04:33:32;;;;;;;5.83;1.27;;;12.10;99.90;;;;;;5021588;28;20957;-74
2022/12/29 04:36:18;;;;;;;3.17;1.80;;;12.20;99.90;;;;;;5025262;28;20459;-73
2022/12/29 04:39:05;;;;;;;4.03;1.33;;;12.20;99.90;;;;;;5028692;28;20464;-73
2022/12/29 04:41:50;;;;;;;2.23;1.37;;;12.20;99.90;;;;;;5030044;28;20808;-74
2022/12/29 04:44:37;;;;;;;3.90;0.97;;;12.20;99.90;;;;;;5021900;28;20445;-74
2022/12/29 04:47:22;;;;;;;3.83;1.37;;;12.20;99.90;;;;;;5020993;28;21013;-74
2022/12/29 04:50:09;;;;;;;4.87;2.10;;;12.20;99.90;;;;;;5024288;28;20506;-73
2022/12/29 04:52:54;;;;;;;7.73;1.40;;;12.20;99.90;;;;;;5021949;28;20452;-73
2022/12/29 04:55:40;;;;;;;2.17;1.40;;;12.20;99.90;;;;;;5016808;28;20427;-72
2022/12/29 04:58:25;;;;;;;2.13;1.30;;;12.30;99.90;;;;;;5027597;28;20985;-73
2022/12/29 05:01:12;;;;;;;4.37;1.37;;;12.30;99.90;;;;;;5022363;28;20969;-74
2022/12/29 05:03:58;;;;;;;2.30;1.37;;;12.30;99.90;;;;;;5017548;28;20444;-74
2022/12/29 05:06:44;;;;;;;3.23;2.27;;;12.30;99.90;;;;;;5030494;28;20467;-74
2022/12/29 05:09:30;;;;;;;3.93;1.50;;;12.30;99.90;;;;;;5029030;28;20468;-74
2022/12/29 05:12:15;;;;;;;2.30;1.30;;;12.20;99.90;;;;;;5025931;28;20805;-74
2022/12/29 05:15:02;;;;;;;2.60;1.27;;;12.20;99.90;;;;;;5024323;28;20799;-74
2022/12/29 05:17:49;;;;;;;2.33;1.20;;;12.30;99.90;;;;;;5028030;28;20457;-73
2022/12/29 05:20:35;;;;;;;3.00;1.47;;;12.30;99.90;;;;;;5023055;28;20430;-73
2022/12/29 05:23:21;;;;;;;3.37;1.67;;;12.30;99.90;;;;;;5017581;28;20559;-73
2022/12/29 05:26:06;;;;;;;2.23;1.50;;;12.30;99.90;;;;;;5023515;28;20444;-74
2022/12/29 05:28:52;;;;;;;5.83;1.30;;;12.30;99.90;;;;;;5035517;23;20543;-75
2022/12/29 05:31:38;;;;;;;1.90;1.10;;;12.30;99.90;;;;;;5012935;28;20953;-76
2022/12/29 05:34:24;;;;;;;3.63;1.63;;;12.30;99.90;;;;;;5011495;28;20440;-76
2022/12/29 05:37:10;;;;;;;3.50;1.80;;;12.20;99.90;;;;;;5004622;28;21081;-76
2022/12/29 05:39:56;;;;;;;3.03;1.50;;;12.30;99.90;;;;;;5023594;28;20591;-76
2022/12/29 05:42:42;;;;;;;3.10;1.40;;;12.20;99.90;;;;;;5020708;28;20452;-76
2022/12/29 05:45:27;;;;;;;5.23;1.47;;;12.20;99.90;;;;;;5023295;28;20450;-77
2022/12/29 05:48:13;;;;;;;2.23;1.40;;;12.20;99.90;;;;;;5024704;28;20531;-75
2022/12/29 05:51:00;;;;;;;4.20;2.23;;;12.20;99.90;;;;;;5027180;28;20430;-76
2022/12/29 05:53:46;;;;;;;2.13;1.30;;;12.30;99.90;;;;;;5014839;28;20453;-76
2022/12/29 05:56:32;;;;;;;3.13;1.70;;;12.30;99.90;;;;;;5031154;28;20469;-76
2022/12/29 05:59:17;;;;;;;3.30;1.70;;;12.30;99.90;;;;;;5032197;28;20529;-76
2022/12/29 06:02:03;;;;;;;3.10;1.63;;;12.20;99.90;;;;;;5027792;28;20415;-76
2022/12/29 06:04:49;;;;;;;4.60;1.60;;;12.30;99.90;;;;;;5016642;28;20444;-76
2022/12/29 06:07:36;;;;;;;3.17;1.67;;;12.30;99.90;;;;;;5028527;28;20475;-76
2022/12/29 06:10:21;;;;;;;2.80;1.40;;;12.30;99.90;;;;;;5027679;28;20487;-76
2022/12/29 06:13:07;;;;;;;3.30;2.30;;;12.30;99.90;;;;;;5016623;28;20478;-76
2022/12/29 06:15:52;;;;;;;1.70;1.10;;;12.30;99.90;;;;;;5028874;28;20563;-75
2022/12/29 06:18:38;;;;;;;5.00;1.37;;;12.30;99.90;;;;;;5035593;28;20428;-76
2022/12/29 06:21:23;;;;;;;4.43;1.50;;;12.20;99.90;;;;;;5027235;28;20491;-75
2022/12/29 06:24:11;;;;;;;2.50;1.20;;;12.30;99.90;;;;;;5029308;28;20904;-75
2022/12/29 06:26:59;;;;;;;7.43;1.67;;;12.20;99.90;;;;;;5024778;28;20970;-76
2022/12/29 06:29:45;;;;;;;3.37;1.30;;;12.20;99.90;;;;;;5035902;28;20459;-76
2022/12/29 06:32:31;;;;;;;3.00;1.60;;;12.20;99.90;;;;;;5025371;28;20448;-75
2022/12/29 06:35:17;;;;;;;3.80;2.00;;;12.20;99.90;;;;;;5034865;28;20452;-76
2022/12/29 06:38:03;;;;;;;3.00;1.77;;;12.20;99.90;;;;;;5031404;28;20429;-75
2022/12/29 06:40:50;;;;;;;3.30;1.80;;;12.20;99.90;;;;;;5037749;28;20562;-76
2022/12/29 06:43:37;;;;;;;2.73;1.53;;;12.10;99.90;;;;;;5032101;28;20422;-76
2022/12/29 06:46:23;;;;;;;3.10;2.00;;;12.20;99.90;;;;;;5030080;28;20464;-75
2022/12/29 06:49:09;;;;;;;8.77;2.40;;;12.20;99.90;;;;;;5035522;28;20449;-76
2022/12/29 06:51:54;;;;;;;6.30;1.60;;;12.20;99.90;;;;;;5025095;28;20969;-76
2022/12/29 06:54:40;;;;;;;4.70;1.67;;;12.20;99.90;;;;;;5022677;28;20965;-76
2022/12/29 06:57:27;;;;;;;2.20;1.40;;;12.20;99.90;;;;;;5028089;28;20543;-76
2022/12/29 07:00:14;;;;;;;4.70;1.70;;;12.30;99.90;;;;;;5033770;28;20521;-76
2022/12/29 07:03:00;;;;;;;3.60;1.63;;;12.30;99.90;;;;;;5023847;28;20571;-75
2022/12/29 07:05:45;;;;;;;12.77;1.77;;;12.30;99.90;;;;;;5025945;28;20586;-76
2022/12/29 07:08:31;;;;;;;3.63;1.63;;;12.30;99.90;;;;;;5026050;28;20522;-75
2022/12/29 07:11:17;;;;;;;3.00;1.80;;;12.30;99.90;;;;;;5019490;28;20879;-77
2022/12/29 07:14:04;;;;;;;4.60;1.70;;;12.40;99.90;;;;;;5026178;28;20966;-76
2022/12/29 07:16:49;;;;;;;2.60;1.70;;;12.40;99.90;;;;;;5034813;28;20467;-76
2022/12/29 07:19:35;;;;;;;4.60;2.00;;;12.40;99.90;;;;;;5024555;28;20472;-76
2022/12/29 07:22:21;;;;;;;3.60;1.60;;;12.40;99.90;;;;;;5020529;28;20441;-75
2022/12/29 07:25:08;;;;;;;5.17;1.77;;;12.40;99.90;;;;;;5021390;28;20483;-75
2022/12/29 07:27:53;;;;;;;3.50;1.93;;;12.40;99.90;;;;;;5022779;28;20465;-76
2022/12/29 07:30:40;;;;;;;5.87;1.97;;;12.40;99.90;;;;;;5024695;28;20521;-76
2022/12/29 07:33:29;;;;;;;3.07;2.13;;;12.50;99.90;;;;;;5025052;28;20448;-76
2022/12/29 07:36:15;;;;;;;3.67;2.03;;;12.50;99.90;;;;;;5027790;28;20464;-75
2022/12/29 07:39:01;;;;;;;2.47;1.70;;;12.50;99.90;;;;;;5032186;28;20452;-76
2022/12/29 07:41:46;;;;;;;11.50;2.10;;;12.50;99.90;;;;;;5022074;28;20520;-76
2022/12/29 07:44:32;;;;;;;3.20;1.97;;;12.50;99.90;;;;;;5028257;28;20579;-76
2022/12/29 07:47:20;;;;;;;4.10;1.97;;;12.60;99.90;;;;;;5028701;28;20624;-75
2022/12/29 07:50:06;;;;;;;2.83;1.73;;;12.60;99.90;;;;;;5028171;28;20481;-76
2022/12/29 07:52:52;;;;;;;5.43;2.10;;;12.60;99.90;;;;;;5027753;28;20464;-76
2022/12/29 07:55:38;;;;;;;6.03;1.83;;;12.60;99.90;;;;;;5032638;28;20457;-76
2022/12/29 07:58:24;;;;;;;5.03;2.33;;;12.60;99.90;;;;;;5032159;28;20514;-76
2022/12/29 08:01:09;;;;;;;4.20;2.50;;;12.60;99.90;;;;;;5019971;28;21099;-75
2022/12/29 08:03:58;;;;;;;3.60;1.77;;;12.60;99.90;;;;;;5035412;28;20436;-75
2022/12/29 08:06:45;;;;;;;3.73;1.80;;;12.60;99.90;;;;;;5035196;28;20448;-76
2022/12/29 08:09:31;;;;;;;3.90;1.90;;;12.60;99.90;;;;;;5030494;28;20463;-75
2022/12/29 08:12:16;;;;;;;2.43;1.73;;;12.70;99.90;;;;;;5025731;28;20463;-76
2022/12/29 08:15:02;;;;;;;5.47;1.83;;;12.70;99.90;;;;;;5027763;28;20419;-75
2022/12/29 08:17:48;;;;;;;5.57;2.37;;;12.70;99.90;;;;;;5039752;28;20567;-76
2022/12/29 08:20:35;;;;;;;4.87;1.90;;;12.70;99.90;;;;;;5027808;28;20556;-76
2022/12/29 08:23:20;;;;;;;6.27;2.07;;;12.60;99.90;;;;;;5030498;28;20428;-76
2022/12/29 08:26:06;;;;;;;5.57;1.93;;;12.60;99.90;;;;;;5035072;28;20945;-75
2022/12/29 08:28:54;;;;;;;3.90;2.13;;;12.60;99.90;;;;;;5034845;28;20554;-76
2022/12/29 08:31:40;;;;;;;19.23;2.73;;;12.70;99.90;;;;;;5021088;28;20970;-76
2022/12/29 08:34:25;;;;;;;5.43;1.93;;;12.70;99.90;;;;;;5036818;28;21074;-76
2022/12/29 08:37:12;;;;;;;5.60;1.63;;;12.70;99.90;;;;;;5035428;28;20499;-76
2022/12/29 08:39:59;;;;;;;3.03;2.00;;;12.80;99.90;;;;;;5025855;28;20436;-76
2022/12/29 08:42:45;;;;;;;5.10;1.93;;;12.70;99.90;;;;;;5032563;28;20425;-77
2022/12/29 08:45:30;;;;;;;4.40;2.20;;;12.80;99.90;;;;;;5041493;28;20410;-76
2022/12/29 08:48:19;;;;;;;6.23;1.87;;;12.70;99.90;;;;;;5024779;28;20475;-76
2022/12/29 08:51:05;;;;;;;7.30;2.53;;;12.70;99.90;;;;;;5026849;28;20491;-75
2022/12/29 08:53:52;;;;;;;5.60;2.07;;;12.80;99.90;;;;;;5024561;28;20482;-75
2022/12/29 08:56:38;;;;;;;6.60;2.47;;;12.80;99.90;;;;;;5024792;28;21698;-77
2022/12/29 08:59:24;;;;;;;5.00;2.27;;;12.70;99.90;;;;;;5023561;28;20964;-75
2022/12/29 09:02:12;;;;;;;4.20;2.27;;;12.70;99.90;;;;;;5018802;28;20595;-76
2022/12/29 09:04:58;;;;;;;6.73;2.33;;;12.70;99.90;;;;;;5028891;28;20440;-76
2022/12/29 09:07:44;;;;;;;8.80;2.10;;;12.70;99.90;;;;;;5023035;28;20551;-76
2022/12/29 09:10:31;;;;;;;4.27;2.13;;;12.80;99.90;;;;;;5023212;28;20608;-76
2022/12/29 09:13:17;;;;;;;3.63;2.40;;;12.70;99.90;;;;;;5033184;28;20809;-76
2022/12/29 09:16:03;;;;;;;3.70;2.17;;;12.70;99.90;;;;;;5028021;28;20908;-78
2022/12/29 09:18:49;;;;;;;4.60;2.73;;;12.70;99.90;;;;;;5028082;28;20478;-76
2022/12/29 09:21:35;;;;;;;4.83;2.27;;;12.70;99.90;;;;;;5024304;28;20468;-76
2022/12/29 09:24:20;;;;;;;9.20;4.23;;;12.70;99.90;;;;;;5033608;28;20432;-78
2022/12/29 09:27:07;;;;;;;9.30;2.30;;;12.70;99.90;;;;;;5020070;28;20637;-76
2022/12/29 09:29:53;;;;;;;6.00;2.57;;;12.70;99.90;;;;;;5027933;28;20463;-76
2022/12/29 09:32:39;;;;;;;4.30;2.47;;;12.70;99.90;;;;;;5029313;28;20472;-76
2022/12/29 09:35:24;;;;;;;3.33;2.20;;;12.70;99.90;;;;;;5025586;28;20463;-76
2022/12/29 09:38:10;;;;;;;4.47;2.33;;;12.70;99.90;;;;;;5017175;28;20437;-76
2022/12/29 09:41:00;;;;;;;3.30;1.90;;;12.70;99.90;;;;;;5021722;28;20468;-76
2022/12/29 09:44:06;;;;;;;2.87;2.10;;;12.70;99.90;;;;;;5035237;28;20455;-76
2022/12/29 09:46:55;;;;;;;4.93;2.37;;;12.80;99.90;;;;;;5023626;28;20961;-76
2022/12/29 09:49:45;;;;;;;4.73;2.23;;;12.80;99.90;;;;;;5018689;28;20473;-76
2022/12/29 09:52:35;;;;;;;5.50;2.53;;;12.70;99.90;;;;;;5030016;28;20463;-76
2022/12/29 09:55:24;;;;;;;5.03;3.17;;;12.70;99.90;;;;;;5027129;28;21020;-75
2022/12/29 09:58:16;;;;;;;5.00;2.60;;;12.70;99.90;;;;;;5025371;28;20452;-76
2022/12/29 10:01:06;;;;;;;4.20;2.10;;;12.70;99.90;;;;;;5021450;28;20987;-76
2022/12/29 10:03:53;;;;;;;3.23;1.83;;;12.80;99.90;;;;;;5023892;28;20591;-76
2022/12/29 10:06:44;;;;;;;11.10;2.00;;;12.80;99.90;;;;;;5031754;28;20437;-76
2022/12/29 10:09:34;;;;;;;6.50;2.83;;;12.80;99.90;;;;;;5027205;28;20483;-76
2022/12/29 10:12:35;;;;;;;3.30;2.00;;;12.90;99.90;;;;;;5025700;28;20783;-76
2022/12/29 10:15:34;;;;;;;2.87;1.63;;;12.80;99.90;;;;;;5026820;28;20460;-76
2022/12/29 10:18:38;;;;;;;6.70;2.07;;;12.90;99.90;;;;;;5022163;28;20877;-75
2022/12/29 10:21:34;;;;;;;3.90;1.90;;;13.00;99.90;;;;;;5034879;28;20531;-76
2022/12/29 10:24:22;;;;;;;6.43;2.27;;;13.00;99.90;;;;;;5033052;28;20866;-76
2022/12/29 10:27:12;;;;;;;3.73;2.00;;;13.00;99.90;;;;;;5027803;28;20933;-76
2022/12/29 10:30:00;;;;;;;2.57;1.63;;;13.00;99.90;;;;;;5021594;28;21000;-76
2022/12/29 10:32:51;;;;;;;3.17;2.10;;;13.00;99.90;;;;;;5031539;28;20437;-76
2022/12/29 10:35:42;;;;;;;5.83;2.63;;;12.90;99.90;;;;;;5039479;28;20459;-77
2022/12/29 10:38:35;;;;;;;5.57;2.40;;;12.90;99.90;;;;;;5030589;28;20453;-76
2022/12/29 10:41:26;;;;;;;8.97;2.57;;;12.90;99.90;;;;;;5038007;28;20429;-76
2022/12/29 10:44:17;;;;;;;4.93;2.50;;;12.90;99.90;;;;;;5027353;28;20443;-76
2022/12/29 10:47:07;;;;;;;3.10;2.03;;;12.90;99.90;;;;;;5026414;28;20607;-75
2022/12/29 10:49:54;;;;;;;3.27;2.13;;;12.90;99.90;;;;;;5018799;28;20480;-76
2022/12/29 10:52:42;;;;;;;3.50;2.20;;;12.90;99.90;;;;;;5024368;28;20451;-76
2022/12/29 10:55:31;;;;;;;3.33;2.57;;;12.90;99.90;;;;;;5030375;28;20438;-77
2022/12/29 10:58:18;;;;;;;2.67;1.70;;;13.00;99.90;;;;;;5018452;28;20814;-77
2022/12/29 11:01:04;;;;;;;5.73;2.50;;;12.90;99.90;;;;;;5019785;28;20448;-76
2022/12/29 11:04:00;;;;;;;2.80;1.83;;;12.90;99.90;;;;;;5023157;28;20511;-76
2022/12/29 11:06:45;;;;;;;5.00;2.87;;;13.00;99.90;;;;;;5025627;28;20950;-76
2022/12/29 11:09:36;;;;;;;3.60;2.30;;;13.00;99.90;;;;;;5013878;28;20473;-76
2022/12/29 11:12:25;;;;;;;5.20;2.20;;;13.00;99.90;;;;;;5021697;28;20832;-75
2022/12/29 11:15:16;;;;;;;7.53;3.73;;;13.10;99.90;;;;;;5021274;28;20460;-76
2022/12/29 11:18:02;;;;;;;6.20;3.87;;;13.00;99.90;;;;;;5015161;28;20441;-75
2022/12/29 11:20:48;;;;;;;10.03;2.10;;;13.10;99.90;;;;;;5027599;28;20547;-76
2022/12/29 11:23:37;;;;;;;4.27;2.10;;;13.00;99.90;;;;;;5031199;28;20916;-76
2022/12/29 11:26:25;;;;;;;6.37;2.20;;;13.00;99.90;;;;;;5018567;28;20503;-77
2022/12/29 11:29:38;;;;;;;6.23;2.60;;;13.00;99.90;;;;;;5048480;23;20492;-74
2022/12/29 11:32:26;;;;;;;6.37;2.50;;;13.00;99.90;;;;;;4989549;28;21030;-74
2022/12/29 11:35:32;;;;;;;4.00;2.40;;;13.00;99.90;;;;;;4991348;28;20447;-75
2022/12/29 11:38:24;;;;;;;4.50;2.50;;;12.90;99.90;;;;;;4992030;28;20931;-75
2022/12/29 11:41:14;;;;;;;5.57;1.93;;;12.90;99.90;;;;;;4982391;28;20433;-75
2022/12/29 11:44:06;;;;;;;3.40;2.03;;;12.80;99.90;;;;;;4976822;28;20526;-75
2022/12/29 11:46:53;;;;;;;4.53;2.10;;;12.70;99.90;;;;;;4973722;28;20583;-75
2022/12/29 11:49:39;;;;;;;4.60;2.00;;;12.70;99.90;;;;;;4974446;28;20491;-75
2022/12/29 11:52:30;;;;;;;5.27;1.80;;;12.60;99.90;;;;;;4977347;28;20431;-75
2022/12/29 11:55:20;;;;;;;4.37;2.27;;;12.60;99.90;;;;;;4960108;28;20594;-72
2022/12/29 11:58:07;;;;;;;2.60;1.50;;;12.50;99.90;;;;;;4972612;28;20497;-74
2022/12/29 12:00:54;;;;;;;3.90;1.67;;;12.50;99.90;;;;;;4971144;28;20500;-75
2022/12/29 12:03:46;;;;;;;2.53;1.77;;;12.50;99.90;;;;;;4969543;28;20586;-75
2022/12/29 12:06:36;;;;;;;4.03;1.50;;;12.40;99.90;;;;;;4964549;28;21263;-74
2022/12/29 12:09:30;;;;;;;5.60;2.23;;;12.50;99.90;;;;;;4968904;28;20850;-75
2022/12/29 12:12:25;;;;;;;2.70;1.37;;;12.50;99.90;;;;;;4976603;28;20474;-74
2022/12/29 12:15:19;;;;;;;6.00;1.83;;;12.40;99.90;;;;;;4970925;28;20451;-75
2022/12/29 12:18:12;;;;;;;2.70;1.60;;;12.40;99.90;;;;;;4967806;28;20455;-75
2022/12/29 12:21:05;;;;;;;4.23;1.70;;;12.40;99.90;;;;;;4969239;28;20518;-75
2022/12/29 12:24:15;;;;;;;3.37;1.60;;;12.40;99.90;;;;;;4977002;28;20550;-75
2022/12/29 12:27:10;;;;;;;4.87;1.80;;;12.50;99.90;;;;;;4975120;28;20447;-74
2022/12/29 12:30:02;;;;;;;4.80;1.70;;;12.50;99.90;;;;;;4977053;28;20499;-75
2022/12/29 12:32:53;;;;;;;3.13;1.43;;;12.60;99.90;;;;;;4976356;28;20579;-75
2022/12/29 12:35:45;;;;;;;3.70;1.60;;;12.60;99.90;;;;;;4964586;28;20516;-75
2022/12/29 12:38:41;;;;;;;4.07;2.07;;;12.70;99.90;;;;;;4972780;28;20443;-74
2022/12/29 12:41:36;;;;;;;6.63;1.60;;;12.80;99.90;;;;;;4973053;28;20405;-74
2022/12/29 12:44:30;;;;;;;3.77;2.03;;;12.90;99.90;;;;;;4961077;28;20462;-75
2022/12/29 12:47:42;;;;;;;3.80;1.33;;;13.00;99.90;;;;;;4969191;28;20551;-75
2022/12/29 12:50:47;;;;;;;4.13;1.63;;;13.00;99.90;;;;;;4967564;28;20522;-75
2022/12/29 12:54:27;;;;;;;4.30;1.40;;;13.00;99.90;;;;;;5103239;27;20823;-71
2022/12/29 12:57:23;;;;;;;4.27;1.40;;;13.00;99.90;;;;;;5099583;28;20460;-75
2022/12/29 13:00:17;;;;;;;7.30;2.03;;;13.00;99.90;;;;;;5106612;28;20530;-75
2022/12/29 13:03:11;;;;;;;3.80;1.93;;;13.00;99.90;;;;;;5099580;28;20512;-71
2022/12/29 13:06:13;;;;;;;2.00;0.90;;;12.90;99.90;;;;;;5102897;28;20460;-74
2022/12/29 13:09:22;;;;;;;2.03;1.00;;;13.00;99.90;;;;;;5075145;22;20502;-79
2022/12/29 13:12:20;;;;;;;1.93;1.10;;;12.90;99.90;;;;;;5052465;28;20478;-79
2022/12/29 13:15:20;;;;;;;2.53;1.20;;;12.90;99.90;;;;;;5039636;28;21039;-80
2022/12/29 13:18:17;;;;;;;3.00;1.27;;;12.80;99.90;;;;;;5052142;28;20474;-80
2022/12/29 13:21:10;;;;;;;2.93;1.20;;;12.80;99.90;;;;;;5052811;28;20937;-77
2022/12/29 13:24:03;;;;;;;2.60;1.43;;;12.80;99.90;;;;;;5041665;28;20997;-77
2022/12/29 13:26:55;;;;;;;2.80;1.50;;;12.90;99.90;;;;;;5046381;28;20452;-78
2022/12/29 13:29:49;;;;;;;2.13;1.20;;;12.80;99.90;;;;;;5045881;28;20448;-80
2022/12/29 13:32:48;;;;;;;3.93;1.43;;;12.80;99.90;;;;;;5045634;28;20480;-78
2022/12/29 13:35:53;;;;;;;4.30;1.43;;;12.70;99.90;;;;;;5043636;28;20956;-78
2022/12/29 13:38:43;;;;;;;3.40;1.57;;;12.70;99.90;;;;;;5047013;28;20440;-78
2022/12/29 13:41:33;;;;;;;5.93;2.03;;;12.70;99.90;;;;;;5041080;28;20537;-77
2022/12/29 13:44:25;;;;;;;2.83;1.30;;;12.70;99.90;;;;;;5035485;28;20471;-77
2022/12/29 13:47:21;;;;;;;2.10;1.10;;;12.70;99.90;;;;;;5037537;28;20471;-79
2022/12/29 13:50:15;;;;;;;4.80;1.47;;;12.60;99.90;;;;;;5048820;28;20436;-77
2022/12/29 13:53:09;;;;;;;4.93;1.87;;;12.60;99.90;;;;;;5045218;28;21027;-79
2022/12/29 13:56:00;;;;;;;5.33;1.13;;;12.60;99.90;;;;;;5041127;28;20486;-77
2022/12/29 13:58:51;;;;;;;4.63;1.20;;;12.60;99.90;;;;;;5042275;28;20525;-77
2022/12/29 14:01:44;;;;;;;3.97;1.23;;;12.60;99.90;;;;;;5044571;28;21007;-77
2022/12/29 14:04:34;;;;;;;3.70;1.40;;;12.60;99.90;;;;;;5025447;28;20444;-77
2022/12/29 14:07:20;;;;;;;2.50;1.00;;;12.50;99.90;;;;;;5036387;28;20488;-75
2022/12/29 14:10:07;;;;;;;6.60;1.43;;;12.50;99.90;;;;;;5034111;28;20454;-75
2022/12/29 14:13:02;;;;;;;2.53;1.10;;;12.40;99.90;;;;;;5028656;28;20635;-75
2022/12/29 14:15:53;;;;;;;3.40;1.13;;;12.40;99.90;;;;;;5031019;28;20452;-77
2022/12/29 14:18:45;;;;;;;2.60;1.57;;;12.30;99.90;;;;;;5040893;28;20459;-77
2022/12/29 14:21:30;;;;;;;2.80;1.43;;;12.30;99.90;;;;;;5028510;28;20449;-73
2022/12/29 14:24:40;;;;;;;2.43;1.20;;;12.30;99.90;;;;;;5026926;28;20452;-76
2022/12/29 14:27:59;;;;;;;2.03;0.73;;;12.30;99.90;;;;;;5028991;28;20996;-75
2022/12/29 14:30:55;;;;;;;3.57;1.40;;;12.20;99.90;;;;;;5029197;28;21061;-75
2022/12/29 14:33:41;;;;;;;1.90;0.97;;;12.20;99.90;;;;;;5022292;28;20485;-74
2022/12/29 14:36:36;;;;;;;3.43;1.20;;;12.10;99.90;;;;;;5037383;28;20398;-77
2022/12/29 14:39:44;;;;;;;2.70;0.90;;;12.10;99.90;;;;;;5036059;28;20996;-78
2022/12/29 14:42:31;;;;;;;9.30;0.90;;;12.00;99.90;;;;;;5030092;28;20437;-76
2022/12/29 14:45:28;;;;;;;3.93;1.00;;;11.90;99.90;;;;;;5022090;28;20460;-77
2022/12/29 14:48:37;;;;;;;5.63;1.13;;;11.70;99.90;;;;;;5027310;28;20607;-76
2022/12/29 14:51:35;;;;;;;3.00;1.07;;;11.60;99.90;;;;;;5023369;28;20499;-78
2022/12/29 14:54:49;;;;;;;2.83;1.17;;;11.50;99.90;;;;;;5016274;28;21001;-76
2022/12/29 14:57:38;;;;;;;1.57;0.73;;;11.40;99.90;;;;;;5025723;28;20468;-76
2022/12/29 15:00:26;;;;;;;2.40;0.90;;;11.30;99.90;;;;;;5024171;28;20988;-76
2022/12/29 15:03:18;;;;;;;5.00;1.30;;;11.20;99.90;;;;;;5020140;28;20456;-77
2022/12/29 15:06:09;;;;;;;1.93;0.87;;;11.20;99.90;;;;;;5024088;28;20452;-77
2022/12/29 15:09:02;;;;;;;2.80;1.17;;;11.20;99.90;;;;;;5027602;28;20525;-77
2022/12/29 15:11:52;;;;;;;4.17;1.00;;;11.20;99.90;;;;;;5024496;28;20453;-76
2022/12/29 15:14:40;;;;;;;3.33;1.20;;;11.10;99.90;;;;;;5024675;28;20477;-74